Time;durP1;ratioP1;P1;durP2;ratioP2;P2;SDS_P1;SDS_P2;PMS_P1;PMS_P2;Temp;Humidity;BMP_temperature;BMP_pressure;BME280_temperature;BME280_humidity;BME280_pressure;Samples;Min_cycle;Max_cycle;Signal;HPM_P1;HPM_P2
2023/06/04 00:01:20;;;;;;;10.07;1.13;;;13.50;77.20;;;;;;5051797;28;20056;-53
2023/06/04 00:03:45;;;;;;;2.90;1.13;;;13.50;77.10;;;;;;5051544;28;20429;-53
2023/06/04 00:06:11;;;;;;;2.57;1.30;;;13.50;77.40;;;;;;5051455;28;20029;-56
2023/06/04 00:08:37;;;;;;;2.33;1.00;;;13.50;77.60;;;;;;5051607;28;20036;-52
2023/06/04 00:11:03;;;;;;;3.17;1.10;;;13.40;77.60;;;;;;5051174;28;20063;-55
2023/06/04 00:13:28;;;;;;;2.20;1.23;;;13.40;77.80;;;;;;5051504;28;20037;-53
2023/06/04 00:15:54;;;;;;;1.80;1.07;;;13.40;78.00;;;;;;5051517;28;20108;-49
2023/06/04 00:18:20;;;;;;;2.20;1.03;;;13.40;78.00;;;;;;5051539;28;20025;-54
2023/06/04 00:20:46;;;;;;;2.43;1.10;;;13.30;78.30;;;;;;5051353;28;20399;-51
2023/06/04 00:23:11;;;;;;;1.67;0.80;;;13.30;78.50;;;;;;5051584;28;20044;-55
2023/06/04 00:25:37;;;;;;;1.93;1.10;;;13.20;78.40;;;;;;5051290;28;20043;-51
2023/06/04 00:28:03;;;;;;;3.17;1.40;;;13.20;78.50;;;;;;5051327;28;20043;-54
2023/06/04 00:30:29;;;;;;;3.17;1.00;;;13.20;78.80;;;;;;5051150;28;20033;-54
2023/06/04 00:32:55;;;;;;;3.27;0.90;;;13.20;78.30;;;;;;5051241;28;20074;-55
2023/06/04 00:35:21;;;;;;;2.40;1.13;;;13.20;78.70;;;;;;5050736;28;20437;-51
2023/06/04 00:37:47;;;;;;;2.63;0.90;;;13.10;78.70;;;;;;5032469;28;20025;-51
2023/06/04 00:40:13;;;;;;;1.97;0.90;;;13.10;79.30;;;;;;5050721;28;20047;-52
2023/06/04 00:42:38;;;;;;;1.80;0.80;;;13.10;79.50;;;;;;5051273;28;20032;-54
2023/06/04 00:45:07;;;;;;;1.70;0.83;;;13.00;79.70;;;;;;5050801;28;20432;-55
2023/06/04 00:47:33;;;;;;;2.47;0.90;;;13.00;80.30;;;;;;5051110;28;20641;-52
2023/06/04 00:49:59;;;;;;;2.17;1.27;;;13.00;80.60;;;;;;5051059;28;20044;-55
2023/06/04 00:52:25;;;;;;;1.13;0.80;;;13.00;80.80;;;;;;5033236;28;20033;-56
2023/06/04 00:54:54;;;;;;;1.50;0.80;;;12.90;81.30;;;;;;5050815;28;20474;-56
2023/06/04 00:57:22;;;;;;;1.57;1.00;;;12.90;81.90;;;;;;5033057;28;20159;-54
2023/06/04 00:59:48;;;;;;;2.00;1.10;;;12.90;82.40;;;;;;5033161;28;20035;-51
2023/06/04 01:02:22;;;;;;;2.37;1.10;;;12.90;83.20;;;;;;5051841;28;20102;-51
2023/06/04 01:05:00;;;;;;;2.80;0.93;;;12.80;84.30;;;;;;5034432;28;20450;-50
2023/06/04 01:07:28;;;;;;;4.45;1.17;;;12.80;84.80;;;;;;5052866;28;20055;-52
2023/06/04 01:09:55;;;;;;;3.60;0.93;;;12.80;85.90;;;;;;5052761;28;20091;-50
2023/06/04 01:12:21;;;;;;;1.50;0.73;;;12.80;86.50;;;;;;5052435;28;20036;-53
2023/06/04 01:14:46;;;;;;;1.33;0.80;;;12.80;87.50;;;;;;5052668;28;20039;-55
2023/06/04 01:17:38;;;;;;;1.77;0.80;;;12.80;88.40;;;;;;5053126;28;20051;-49
2023/06/04 01:20:25;;;;;;;2.17;0.83;;;12.80;89.20;;;;;;5034726;28;20507;-55
2023/06/04 01:22:54;;;;;;;2.90;0.90;;;12.80;90.30;;;;;;5052211;28;20507;-55
2023/06/04 01:25:39;;;;;;;2.15;1.00;;;12.80;90.50;;;;;;5050814;28;20040;-56
2023/06/04 01:28:07;;;;;;;2.93;1.00;;;12.80;90.90;;;;;;5032598;28;20493;-54
2023/06/04 01:30:35;;;;;;;3.17;1.03;;;12.80;91.10;;;;;;5050090;28;20033;-55
2023/06/04 01:33:02;;;;;;;3.95;1.17;;;12.70;91.60;;;;;;5032364;28;20043;-54
2023/06/04 01:35:31;;;;;;;2.10;1.10;;;12.70;91.60;;;;;;5032109;28;20037;-56
2023/06/04 01:37:57;;;;;;;1.98;1.02;;;12.70;91.90;;;;;;5032366;28;20029;-55
2023/06/04 01:40:23;;;;;;;3.17;1.00;;;12.60;92.00;;;;;;5050016;28;20029;-54
2023/06/04 01:42:49;;;;;;;4.93;1.07;;;12.60;92.30;;;;;;5050139;28;20033;-52
2023/06/04 01:45:15;;;;;;;2.90;1.10;;;12.60;92.60;;;;;;5050087;28;20120;-55
2023/06/04 01:47:41;;;;;;;1.53;0.90;;;12.50;92.90;;;;;;5051084;28;20064;-51
2023/06/04 01:50:09;;;;;;;1.17;0.90;;;12.50;93.20;;;;;;5053832;28;20033;-56
2023/06/04 01:52:39;;;;;;;2.50;1.00;;;12.40;93.40;;;;;;5053828;28;20469;-54
2023/06/04 01:55:07;;;;;;;2.30;1.00;;;12.40;93.70;;;;;;5053837;28;20029;-56
2023/06/04 01:57:33;;;;;;;3.30;1.20;;;12.30;93.90;;;;;;5054114;28;20397;-53
2023/06/04 02:00:00;;;;;;;4.43;1.13;;;12.30;94.10;;;;;;5036051;28;20029;-53
2023/06/04 02:02:26;;;;;;;4.23;1.20;;;12.30;94.50;;;;;;5053484;28;20025;-57
2023/06/04 02:04:52;;;;;;;1.60;0.80;;;12.30;94.90;;;;;;5035695;28;20081;-55
2023/06/04 02:07:21;;;;;;;2.67;0.90;;;12.20;95.20;;;;;;5053510;28;20541;-56
2023/06/04 02:09:47;;;;;;;2.13;0.90;;;12.20;95.40;;;;;;5053861;28;20056;-53
2023/06/04 02:12:14;;;;;;;1.73;0.77;;;12.20;95.60;;;;;;5053289;28;20486;-55
2023/06/04 02:14:44;;;;;;;2.57;1.00;;;12.20;95.90;;;;;;5035318;28;20508;-55
2023/06/04 02:17:16;;;;;;;1.80;0.87;;;12.20;96.10;;;;;;5053455;28;20029;-56
2023/06/04 02:19:44;;;;;;;2.07;1.00;;;12.10;96.40;;;;;;5053574;28;20113;-54
2023/06/04 02:22:11;;;;;;;2.83;0.90;;;12.10;96.70;;;;;;5053123;28;20065;-56
2023/06/04 02:24:38;;;;;;;2.87;0.93;;;12.10;97.00;;;;;;5035450;28;20032;-57
2023/06/04 02:27:06;;;;;;;1.30;0.80;;;12.10;97.20;;;;;;5035502;28;20397;-54
2023/06/04 02:29:32;;;;;;;1.73;1.00;;;12.10;97.40;;;;;;5035172;28;20621;-57
2023/06/04 02:31:58;;;;;;;1.40;0.80;;;12.10;97.40;;;;;;5052880;28;20108;-56
2023/06/04 02:34:24;;;;;;;3.10;1.20;;;12.10;97.70;;;;;;5035263;28;20025;-56
2023/06/04 02:36:50;;;;;;;2.20;1.10;;;12.00;97.80;;;;;;5052936;28;20036;-57
2023/06/04 02:39:18;;;;;;;1.87;1.00;;;12.00;97.80;;;;;;5035241;28;20029;-57
2023/06/04 02:41:43;;;;;;;1.83;0.87;;;12.00;98.50;;;;;;5034895;28;20032;-57
2023/06/04 02:44:09;;;;;;;4.67;1.00;;;12.00;98.40;;;;;;5052918;28;20032;-55
2023/06/04 02:46:37;;;;;;;1.67;0.90;;;12.00;98.50;;;;;;5034871;28;20035;-56
2023/06/04 02:49:03;;;;;;;2.33;0.90;;;11.90;98.60;;;;;;5052923;28;20040;-56
2023/06/04 02:51:29;;;;;;;3.10;1.00;;;11.90;98.70;;;;;;5052711;28;20029;-53
2023/06/04 02:53:55;;;;;;;2.17;1.13;;;11.90;98.90;;;;;;5052794;28;20544;-54
2023/06/04 02:56:21;;;;;;;1.43;0.77;;;11.90;98.90;;;;;;5052694;28;20028;-54
2023/06/04 02:58:55;;;;;;;2.03;1.03;;;11.90;98.80;;;;;;5052144;28;20112;-52
2023/06/04 03:01:26;;;;;;;1.87;0.80;;;11.90;98.90;;;;;;5034422;28;20029;-54
2023/06/04 03:03:53;;;;;;;1.73;0.83;;;11.90;99.10;;;;;;5035105;28;20128;-53
2023/06/04 03:06:22;;;;;;;3.13;0.97;;;11.90;99.30;;;;;;5052494;28;20040;-54
2023/06/04 03:08:50;;;;;;;1.63;0.80;;;11.90;99.30;;;;;;5052761;28;20493;-55
2023/06/04 03:11:16;;;;;;;1.77;1.03;;;11.90;99.40;;;;;;5052370;28;20429;-53
2023/06/04 03:13:42;;;;;;;3.20;1.00;;;11.80;99.70;;;;;;5052535;28;20058;-55
2023/06/04 03:16:10;;;;;;;1.83;0.80;;;11.80;99.90;;;;;;5052451;28;20029;-55
2023/06/04 03:18:37;;;;;;;0.90;0.82;;;11.80;99.90;;;;;;5034565;28;20379;-54
2023/06/04 03:21:04;;;;;;;2.60;1.50;;;11.80;99.90;;;;;;5052134;28;20025;-52
2023/06/04 03:23:31;;;;;;;4.20;0.90;;;11.70;99.90;;;;;;5052188;28;20028;-54
2023/06/04 03:25:57;;;;;;;2.23;0.93;;;11.70;99.90;;;;;;5034208;28;20032;-55
2023/06/04 03:28:22;;;;;;;1.57;0.77;;;11.70;99.90;;;;;;5034378;28;20380;-55
2023/06/04 03:30:48;;;;;;;2.10;0.97;;;11.60;99.90;;;;;;5033994;28;20120;-50
2023/06/04 03:33:15;;;;;;;1.73;0.90;;;11.60;99.90;;;;;;5052091;28;20028;-50
2023/06/04 03:35:41;;;;;;;4.07;1.20;;;11.70;99.90;;;;;;5052197;28;20033;-51
2023/06/04 03:38:07;;;;;;;1.47;0.90;;;11.60;99.90;;;;;;5051945;28;20039;-56
2023/06/04 03:40:34;;;;;;;1.73;0.97;;;11.60;99.90;;;;;;5033923;28;20032;-53
2023/06/04 03:43:00;;;;;;;2.40;1.00;;;11.60;99.90;;;;;;5034023;28;20029;-54
2023/06/04 03:45:29;;;;;;;3.27;1.10;;;11.60;99.90;;;;;;5033841;28;20028;-54
2023/06/04 03:47:55;;;;;;;3.73;1.10;;;11.60;99.90;;;;;;5033958;28;20033;-56
2023/06/04 03:50:22;;;;;;;2.20;1.10;;;11.60;99.90;;;;;;5033612;28;20425;-53
2023/06/04 03:52:50;;;;;;;2.03;1.00;;;11.60;99.90;;;;;;5033697;28;20036;-53
2023/06/04 03:55:16;;;;;;;1.70;1.10;;;11.60;99.90;;;;;;5033621;28;20021;-54
2023/06/04 03:57:42;;;;;;;1.57;0.83;;;11.60;99.90;;;;;;5033924;28;20116;-53
2023/06/04 04:00:13;;;;;;;2.13;0.93;;;11.60;99.90;;;;;;5051464;28;20048;-56
2023/06/04 04:02:48;;;;;;;3.35;1.52;;;11.60;99.90;;;;;;5033744;28;20100;-56
2023/06/04 04:05:27;;;;;;;3.63;0.93;;;11.60;99.90;;;;;;5033260;28;20490;-53
2023/06/04 04:07:53;;;;;;;2.50;1.20;;;11.60;99.90;;;;;;5033671;28;20032;-54
2023/06/04 04:10:23;;;;;;;2.23;1.10;;;11.60;99.90;;;;;;5032942;28;20033;-55
2023/06/04 04:12:51;;;;;;;2.37;1.20;;;11.70;99.90;;;;;;5051194;28;20035;-57
2023/06/04 04:15:18;;;;;;;;;;;11.60;99.90;;;;;;5017741;28;20053;-55
2023/06/04 04:17:45;;;;;;;2.50;1.13;;;11.60;99.90;;;;;;5033638;28;19925;-54
2023/06/04 04:20:11;;;;;;;2.77;0.97;;;11.70;99.90;;;;;;5033541;28;20106;-54
2023/06/04 04:22:43;;;;;;;1.47;0.80;;;11.70;99.90;;;;;;5033632;28;20396;-53
2023/06/04 04:25:11;;;;;;;2.93;1.50;;;11.70;99.90;;;;;;5033208;28;20450;-55
2023/06/04 04:27:40;;;;;;;2.77;1.13;;;11.80;99.90;;;;;;5033546;28;20063;-53
2023/06/04 04:30:09;;;;;;;3.83;1.37;;;11.80;99.90;;;;;;5032986;28;20090;-56
2023/06/04 04:32:38;;;;;;;3.63;1.20;;;11.90;99.90;;;;;;5033273;28;20021;-55
2023/06/04 04:35:07;;;;;;;2.50;1.10;;;11.80;99.90;;;;;;5032998;28;20170;-52
2023/06/04 04:37:38;;;;;;;4.33;1.27;;;11.90;99.90;;;;;;5033366;28;20025;-52
2023/06/04 04:40:09;;;;;;;2.63;1.13;;;11.90;99.90;;;;;;5033114;28;20406;-56
2023/06/04 04:42:35;;;;;;;6.20;1.00;;;12.00;99.90;;;;;;5033300;28;20037;-53
2023/06/04 04:45:03;;;;;;;3.53;1.00;;;12.00;99.90;;;;;;5033238;28;20284;-57
2023/06/04 04:47:30;;;;;;;2.13;1.10;;;12.00;99.90;;;;;;5033244;28;20036;-54
2023/06/04 04:49:56;;;;;;;4.47;1.70;;;12.10;99.90;;;;;;5033375;28;20029;-55
2023/06/04 04:52:21;;;;;;;4.13;2.30;;;12.10;99.90;;;;;;5050804;28;20032;-55
2023/06/04 04:54:48;;;;;;;2.63;1.37;;;12.20;99.90;;;;;;5051325;28;20028;-56
2023/06/04 04:57:14;;;;;;;5.07;1.67;;;12.30;99.90;;;;;;5032968;28;20029;-56
2023/06/04 04:59:42;;;;;;;1.55;0.82;;;12.30;99.90;;;;;;5033023;28;20033;-57
2023/06/04 05:02:08;;;;;;;1.77;0.90;;;12.40;99.90;;;;;;5032670;28;20036;-56
2023/06/04 05:04:34;;;;;;;2.63;1.20;;;12.40;99.90;;;;;;5050826;28;20047;-54
2023/06/04 05:07:00;;;;;;;2.03;0.83;;;12.50;99.90;;;;;;5032716;28;20393;-53
2023/06/04 05:09:26;;;;;;;1.73;1.10;;;12.50;99.90;;;;;;5050700;28;20036;-56
2023/06/04 05:11:52;;;;;;;1.73;0.90;;;12.60;99.90;;;;;;5032236;28;20033;-56
2023/06/04 05:14:18;;;;;;;3.30;1.30;;;12.60;99.90;;;;;;5050557;28;20464;-56
2023/06/04 05:16:44;;;;;;;3.03;1.10;;;12.70;99.90;;;;;;5032484;28;20021;-55
2023/06/04 05:19:11;;;;;;;3.10;1.20;;;12.80;99.90;;;;;;5032607;28;20116;-56
2023/06/04 05:21:39;;;;;;;2.40;1.30;;;12.90;99.90;;;;;;5032320;28;20438;-57
2023/06/04 05:24:06;;;;;;;2.47;1.20;;;12.90;99.90;;;;;;5036102;28;20059;-52
2023/06/04 05:26:37;;;;;;;2.57;1.07;;;12.90;99.90;;;;;;5036783;28;20055;-50
2023/06/04 05:29:09;;;;;;;2.57;1.10;;;13.00;99.90;;;;;;5036720;28;20025;-54
2023/06/04 05:31:39;;;;;;;2.40;1.10;;;13.10;99.60;;;;;;5036376;28;20033;-56
2023/06/04 05:34:07;;;;;;;2.38;1.15;;;13.10;99.90;;;;;;5036587;28;20067;-56
2023/06/04 05:36:36;;;;;;;;;;;13.20;99.70;;;;;;5036807;28;20029;-54
2023/06/04 05:39:04;;;;;;;2.77;1.20;;;13.30;99.40;;;;;;5036435;28;20007;-54
2023/06/04 05:41:45;;;;;;;1.70;1.00;;;13.30;99.20;;;;;;5036274;28;20029;-57
2023/06/04 05:44:11;;;;;;;3.08;1.02;;;13.40;98.90;;;;;;5036513;28;20338;-56
2023/06/04 05:46:37;;;;;;;1.93;1.10;;;13.50;98.80;;;;;;5036053;28;20025;-53
2023/06/04 05:49:02;;;;;;;2.23;1.07;;;13.60;98.70;;;;;;5036691;28;20063;-54
2023/06/04 05:51:28;;;;;;;3.13;0.90;;;13.60;98.60;;;;;;5035800;28;20497;-55
2023/06/04 05:53:54;;;;;;;1.95;0.95;;;13.70;98.70;;;;;;5036147;28;20052;-56
2023/06/04 05:56:20;;;;;;;2.55;1.33;;;13.80;98.60;;;;;;5035944;28;20100;-55
2023/06/04 05:58:52;;;;;;;2.35;1.15;;;13.90;98.40;;;;;;5036118;28;20389;-51
2023/06/04 06:01:18;;;;;;;2.20;1.10;;;13.90;98.30;;;;;;5035762;28;20029;-52
2023/06/04 06:03:44;;;;;;;2.25;1.20;;;14.00;98.70;;;;;;5035906;28;20048;-52
2023/06/04 06:06:13;;;;;;;2.08;1.10;;;14.20;97.80;;;;;;5035644;28;20032;-55
2023/06/04 06:08:39;;;;;;;3.03;1.55;;;14.30;98.10;;;;;;5035731;28;20569;-53
2023/06/04 06:11:06;;;;;;;2.08;1.33;;;14.50;97.20;;;;;;5035473;28;20068;-53
2023/06/04 06:13:33;;;;;;;2.35;1.10;;;14.60;97.00;;;;;;5035876;28;20021;-54
2023/06/04 06:16:02;;;;;;;3.00;1.23;;;14.70;97.00;;;;;;5053631;28;20036;-52
2023/06/04 06:18:27;;;;;;;2.47;1.20;;;14.80;96.30;;;;;;5035847;28;20033;-54
2023/06/04 06:20:53;;;;;;;2.50;1.30;;;14.90;95.80;;;;;;5053552;28;20120;-52
2023/06/04 06:23:21;;;;;;;3.75;1.33;;;15.00;96.30;;;;;;5035881;28;20051;-55
2023/06/04 06:25:48;;;;;;;2.05;1.10;;;15.20;95.50;;;;;;5053721;28;20021;-55
2023/06/04 06:28:20;;;;;;;2.10;1.00;;;15.30;95.20;;;;;;5035674;28;20033;-52
2023/06/04 06:30:47;;;;;;;2.13;1.00;;;15.40;95.10;;;;;;5019262;28;20036;-53
2023/06/04 06:33:13;;;;;;;1.52;0.80;;;15.60;95.00;;;;;;5019025;28;20098;-52
2023/06/04 06:35:39;;;;;;;2.55;1.10;;;15.70;94.60;;;;;;5053646;28;20028;-50
2023/06/04 06:38:05;;;;;;;1.83;0.95;;;15.80;93.50;;;;;;5053413;28;20091;-54
2023/06/04 06:40:31;;;;;;;1.75;1.00;;;15.90;93.80;;;;;;5053172;28;20037;-56
2023/06/04 06:42:57;;;;;;;1.75;0.90;;;16.00;93.50;;;;;;5053293;28;20132;-54
2023/06/04 06:45:23;;;;;;;2.70;1.17;;;16.10;93.60;;;;;;5053057;28;20463;-52
2023/06/04 06:47:49;;;;;;;3.00;1.10;;;16.30;93.60;;;;;;5035552;28;20090;-54
2023/06/04 06:50:15;;;;;;;2.88;1.00;;;16.40;93.20;;;;;;5035248;28;20086;-56
2023/06/04 06:52:41;;;;;;;2.30;1.15;;;16.60;92.40;;;;;;5053172;28;20381;-54
2023/06/04 06:55:08;;;;;;;2.78;0.93;;;16.70;92.30;;;;;;5053225;28;20025;-52
2023/06/04 06:57:34;;;;;;;1.45;0.80;;;16.80;92.40;;;;;;5053036;28;20078;-56
2023/06/04 07:00:00;;;;;;;2.03;1.10;;;16.90;91.40;;;;;;5053126;28;20028;-54
2023/06/04 07:02:26;;;;;;;2.17;0.93;;;17.00;91.20;;;;;;5052551;28;20044;-54
2023/06/04 07:04:51;;;;;;;2.90;1.27;;;17.10;91.70;;;;;;5052590;28;20436;-53
2023/06/04 07:07:17;;;;;;;2.60;1.30;;;17.10;91.00;;;;;;5052765;28;20052;-52
2023/06/04 07:09:43;;;;;;;3.85;1.70;;;17.30;91.60;;;;;;5052811;28;20582;-54
2023/06/04 07:12:09;;;;;;;3.05;1.42;;;17.40;90.20;;;;;;5052375;28;20033;-51
2023/06/04 07:14:34;;;;;;;1.92;1.15;;;17.50;90.50;;;;;;5052449;28;20448;-52
2023/06/04 07:17:00;;;;;;;1.52;0.93;;;17.50;89.20;;;;;;5052402;28;20514;-49
2023/06/04 07:19:26;;;;;;;2.00;0.80;;;17.60;90.20;;;;;;5052676;28;20029;-51
2023/06/04 07:21:54;;;;;;;2.80;1.10;;;17.70;88.30;;;;;;5052833;28;20028;-52
2023/06/04 07:24:20;;;;;;;2.95;1.42;;;17.80;87.60;;;;;;5052893;28;20064;-52
2023/06/04 07:26:47;;;;;;;2.47;1.00;;;18.00;89.50;;;;;;5053106;28;20036;-50
2023/06/04 07:29:13;;;;;;;2.28;1.10;;;18.40;86.90;;;;;;5053476;28;20045;-52
2023/06/04 07:31:38;;;;;;;6.13;2.85;;;18.80;82.90;;;;;;5053116;28;20037;-52
2023/06/04 07:34:04;;;;;;;6.00;2.08;;;18.90;82.40;;;;;;5053520;28;20025;-50
2023/06/04 07:36:30;;;;;;;3.38;1.27;;;19.00;82.00;;;;;;5054018;28;20381;-52
2023/06/04 07:38:56;;;;;;;2.33;1.40;;;19.00;84.60;;;;;;5053772;28;20370;-50
2023/06/04 07:41:22;;;;;;;2.10;0.95;;;19.00;84.00;;;;;;5053232;28;20025;-53
2023/06/04 07:43:48;;;;;;;2.00;1.00;;;19.00;82.50;;;;;;5053378;28;20037;-52
2023/06/04 07:46:18;;;;;;;2.10;1.25;;;19.00;84.60;;;;;;5051690;28;20466;-54
2023/06/04 07:48:44;;;;;;;2.80;1.10;;;19.00;83.10;;;;;;5051903;28;20040;-54
2023/06/04 07:51:11;;;;;;;2.10;1.10;;;19.10;82.80;;;;;;5051536;28;20033;-55
2023/06/04 07:53:37;;;;;;;3.88;1.85;;;19.10;85.10;;;;;;5051855;28;20116;-55
2023/06/04 07:56:03;;;;;;;5.53;1.75;;;19.20;82.40;;;;;;5051821;28;20032;-57
2023/06/04 07:58:29;;;;;;;2.13;0.93;;;19.30;80.80;;;;;;5051858;28;20210;-54
2023/06/04 08:00:55;;;;;;;2.47;1.20;;;19.30;79.70;;;;;;5051495;28;20028;-54
2023/06/04 08:03:22;;;;;;;2.00;0.90;;;19.40;82.40;;;;;;5051793;28;20033;-56
2023/06/04 08:05:47;;;;;;;2.28;1.10;;;19.30;82.20;;;;;;5051398;28;20596;-55
2023/06/04 08:08:13;;;;;;;2.08;1.00;;;19.30;82.90;;;;;;5051795;28;20104;-55
2023/06/04 08:10:42;;;;;;;2.97;1.52;;;19.30;81.70;;;;;;5051306;28;20527;-56
2023/06/04 08:13:11;;;;;;;4.28;2.58;;;19.40;83.30;;;;;;5033406;28;20559;-57
2023/06/04 08:15:36;;;;;;;2.38;0.90;;;19.50;82.80;;;;;;5051457;28;20466;-57
2023/06/04 08:18:02;;;;;;;2.75;1.00;;;19.60;82.70;;;;;;5051683;28;20044;-55
2023/06/04 08:20:28;;;;;;;1.85;1.15;;;19.70;81.40;;;;;;5051513;28;20412;-56
2023/06/04 08:22:54;;;;;;;2.00;1.25;;;19.80;78.00;;;;;;5051587;28;20056;-52
2023/06/04 08:25:19;;;;;;;2.25;1.10;;;19.80;76.90;;;;;;5051546;28;20065;-57
2023/06/04 08:27:45;;;;;;;2.30;1.20;;;19.90;80.50;;;;;;5051592;28;20037;-57
2023/06/04 08:30:11;;;;;;;2.30;1.10;;;19.90;79.00;;;;;;5051748;28;20029;-53
2023/06/04 08:32:37;;;;;;;2.45;1.23;;;20.00;80.20;;;;;;5051594;28;20082;-55
2023/06/04 08:35:03;;;;;;;2.03;1.30;;;20.10;78.80;;;;;;5051139;28;20092;-50
2023/06/04 08:37:29;;;;;;;2.92;1.23;;;20.20;75.30;;;;;;5051244;28;20473;-50
2023/06/04 08:39:54;;;;;;;2.35;1.42;;;20.30;76.40;;;;;;5051279;28;20040;-54
2023/06/04 08:42:31;;;;;;;5.13;1.33;;;20.30;73.40;;;;;;5050532;28;20029;-53
2023/06/04 08:45:00;;;;;;;2.17;1.13;;;20.40;78.50;;;;;;5050809;28;20041;-54
2023/06/04 08:47:28;;;;;;;3.28;1.20;;;20.50;75.00;;;;;;5051040;28;20524;-54
2023/06/04 08:50:01;;;;;;;2.78;1.33;;;20.50;76.10;;;;;;5050917;28;20025;-53
2023/06/04 08:52:28;;;;;;;1.73;1.17;;;20.60;76.80;;;;;;5050694;28;20029;-55
2023/06/04 08:54:54;;;;;;;3.58;1.40;;;20.60;77.10;;;;;;5050580;28;20388;-52
2023/06/04 08:57:20;;;;;;;2.17;1.30;;;20.70;72.30;;;;;;5049851;28;20036;-54
2023/06/04 08:59:50;;;;;;;4.45;1.50;;;20.80;71.80;;;;;;5050714;28;20031;-51
2023/06/04 09:02:17;;;;;;;2.78;1.40;;;20.80;72.30;;;;;;5050301;28;20029;-51
2023/06/04 09:04:43;;;;;;;1.67;1.23;;;20.80;72.40;;;;;;5050318;28;20033;-53
2023/06/04 09:07:12;;;;;;;3.42;1.52;;;20.90;71.90;;;;;;5050467;28;20148;-54
2023/06/04 09:09:40;;;;;;;1.70;0.98;;;21.00;71.00;;;;;;5050773;28;20059;-58
2023/06/04 09:12:10;;;;;;;7.78;1.67;;;21.00;69.70;;;;;;5050003;28;20040;-53
2023/06/04 09:14:36;;;;;;;5.30;1.90;;;20.90;67.50;;;;;;5050366;28;20120;-52
2023/06/04 09:17:01;;;;;;;2.50;1.20;;;21.00;70.90;;;;;;5050142;28;20064;-55
2023/06/04 09:19:27;;;;;;;3.35;1.33;;;21.10;69.60;;;;;;5050625;28;20033;-54
2023/06/04 09:21:58;;;;;;;2.63;1.25;;;21.10;69.00;;;;;;5050082;28;20033;-56
2023/06/04 09:24:38;;;;;;;1.60;1.00;;;21.20;69.50;;;;;;5050689;28;20432;-54
2023/06/04 09:27:10;;;;;;;2.85;1.00;;;21.30;68.60;;;;;;5050210;28;20033;-56
2023/06/04 09:29:36;;;;;;;4.80;1.40;;;21.30;65.00;;;;;;5050485;28;20028;-56
2023/06/04 09:32:02;;;;;;;1.67;1.02;;;21.40;64.30;;;;;;5050385;28;20094;-52
2023/06/04 09:34:28;;;;;;;3.05;1.35;;;21.40;69.00;;;;;;5050772;28;20029;-53
2023/06/04 09:36:55;;;;;;;1.80;1.00;;;21.50;65.00;;;;;;5050157;28;20024;-54
2023/06/04 09:39:20;;;;;;;2.55;1.33;;;21.50;67.70;;;;;;5050294;28;20550;-55
2023/06/04 09:41:58;;;;;;;1.92;1.23;;;21.50;67.40;;;;;;5050084;28;20155;-54
2023/06/04 09:44:24;;;;;;;1.58;1.05;;;21.50;66.60;;;;;;5050337;28;20033;-56
2023/06/04 09:46:57;;;;;;;3.63;1.40;;;21.50;66.40;;;;;;5050024;28;20109;-56
2023/06/04 09:49:23;;;;;;;2.03;1.30;;;21.50;64.40;;;;;;5050498;28;20029;-56
2023/06/04 09:51:48;;;;;;;2.60;1.50;;;21.60;64.60;;;;;;5049754;28;20119;-55
2023/06/04 09:54:14;;;;;;;2.03;1.30;;;21.80;66.60;;;;;;5050357;28;20107;-54
2023/06/04 09:56:41;;;;;;;1.67;1.20;;;21.80;64.80;;;;;;5049860;28;20050;-58
2023/06/04 09:59:09;;;;;;;4.15;1.33;;;21.90;62.70;;;;;;5050266;28;20117;-52
2023/06/04 10:01:42;;;;;;;2.38;1.10;;;21.80;60.60;;;;;;5049746;28;20025;-54
2023/06/04 10:04:11;;;;;;;2.15;1.10;;;21.90;60.70;;;;;;5050041;28;20051;-53
2023/06/04 10:06:39;;;;;;;1.70;0.93;;;21.90;59.60;;;;;;5049812;28;20482;-52
2023/06/04 10:09:07;;;;;;;2.22;0.98;;;21.90;58.20;;;;;;5051726;28;20025;-54
2023/06/04 10:11:37;;;;;;;2.63;1.40;;;21.90;59.70;;;;;;5053561;28;20425;-53
2023/06/04 10:14:22;;;;;;;3.28;1.48;;;21.90;60.40;;;;;;5053644;28;20116;-56
2023/06/04 10:16:50;;;;;;;2.40;1.20;;;22.00;61.40;;;;;;5053479;28;20520;-55
2023/06/04 10:19:17;;;;;;;3.20;1.33;;;22.10;59.70;;;;;;5053773;28;20028;-55
2023/06/04 10:21:44;;;;;;;3.10;1.40;;;22.00;59.60;;;;;;5053438;28;20496;-54
2023/06/04 10:24:12;;;;;;;4.85;1.48;;;22.10;59.70;;;;;;5053731;28;20033;-54
2023/06/04 10:26:40;;;;;;;2.47;1.35;;;22.20;60.10;;;;;;5053380;28;20102;-53
2023/06/04 10:29:06;;;;;;;2.28;1.20;;;22.20;59.50;;;;;;5053663;28;20500;-55
2023/06/04 10:31:33;;;;;;;3.85;2.08;;;22.10;59.60;;;;;;5053204;28;20029;-55
2023/06/04 10:33:59;;;;;;;2.60;1.20;;;22.20;59.30;;;;;;5053790;28;20481;-56
2023/06/04 10:36:25;;;;;;;2.90;1.30;;;22.20;58.20;;;;;;5053124;28;20106;-55
2023/06/04 10:38:55;;;;;;;3.38;1.17;;;22.10;58.70;;;;;;5053400;28;20385;-55
2023/06/04 10:41:22;;;;;;;2.85;1.50;;;22.20;60.10;;;;;;5053222;28;20021;-55
2023/06/04 10:44:00;;;;;;;3.10;1.60;;;22.20;60.10;;;;;;5053261;28;20033;-55
2023/06/04 10:46:25;;;;;;;3.10;1.77;;;22.20;60.10;;;;;;5053173;28;20485;-53
2023/06/04 10:48:53;;;;;;;2.70;1.42;;;22.20;58.70;;;;;;5053316;28;20032;-53
2023/06/04 10:51:33;;;;;;;7.03;3.33;;;22.20;58.50;;;;;;5052793;28;20066;-57
2023/06/04 10:53:59;;;;;;;2.38;1.40;;;22.20;57.80;;;;;;5053181;28;20025;-51
2023/06/04 10:56:26;;;;;;;3.25;1.55;;;22.20;57.60;;;;;;5052671;28;20532;-55
2023/06/04 10:58:52;;;;;;;1.98;1.30;;;22.20;57.90;;;;;;5053194;28;20025;-55
2023/06/04 11:01:31;;;;;;;3.13;1.60;;;22.30;58.60;;;;;;5052552;28;20561;-51
2023/06/04 11:03:57;;;;;;;2.58;1.48;;;22.40;58.80;;;;;;5052829;28;20470;-52
2023/06/04 11:06:27;;;;;;;2.22;1.52;;;22.40;58.80;;;;;;5052469;28;20116;-55
2023/06/04 11:09:03;;;;;;;2.53;1.42;;;22.50;58.90;;;;;;5034918;28;20086;-52
2023/06/04 11:11:29;;;;;;;3.92;1.85;;;22.60;59.60;;;;;;5052260;28;20056;-55
2023/06/04 11:13:55;;;;;;;4.75;1.88;;;22.60;58.80;;;;;;5052516;28;20056;-50
2023/06/04 11:16:21;;;;;;;2.53;1.30;;;22.60;58.10;;;;;;5052340;28;20090;-54
2023/06/04 11:18:57;;;;;;;3.13;1.50;;;22.60;57.50;;;;;;5052524;28;20029;-52
2023/06/04 11:21:24;;;;;;;4.75;2.08;;;22.50;58.40;;;;;;5051343;28;20452;-54
2023/06/04 11:23:56;;;;;;;2.15;1.27;;;22.60;60.20;;;;;;5052353;28;20021;-54
2023/06/04 11:26:22;;;;;;;2.38;1.20;;;22.60;57.40;;;;;;5052746;28;20037;-54
2023/06/04 11:28:50;;;;;;;3.75;1.42;;;22.50;56.50;;;;;;5052410;28;20029;-53
2023/06/04 11:31:16;;;;;;;4.45;2.05;;;22.50;57.20;;;;;;5051881;28;20037;-54
2023/06/04 11:33:43;;;;;;;5.03;2.55;;;22.50;57.70;;;;;;5052236;28;20040;-55
2023/06/04 11:36:10;;;;;;;3.08;1.60;;;22.60;58.50;;;;;;5051985;28;20021;-54
2023/06/04 11:38:35;;;;;;;4.57;2.20;;;22.70;57.60;;;;;;5052127;28;20078;-56
2023/06/04 11:41:04;;;;;;;3.38;1.60;;;22.70;56.60;;;;;;5051876;28;20320;-53
2023/06/04 11:43:31;;;;;;;2.90;1.50;;;22.70;57.10;;;;;;5051855;28;20482;-52
2023/06/04 11:45:58;;;;;;;3.10;1.83;;;22.70;57.40;;;;;;5051812;28;20040;-54
2023/06/04 11:48:23;;;;;;;3.50;1.80;;;22.70;58.00;;;;;;5052027;28;20029;-53
2023/06/04 11:50:49;;;;;;;3.05;1.42;;;22.80;58.30;;;;;;5051551;28;20085;-53
2023/06/04 11:53:15;;;;;;;5.25;2.03;;;22.80;58.20;;;;;;5051655;28;20032;-53
2023/06/04 11:55:41;;;;;;;2.85;1.55;;;22.90;59.00;;;;;;5051620;28;20033;-56
2023/06/04 11:58:07;;;;;;;1.90;1.42;;;22.80;59.10;;;;;;5051748;28;20082;-57
2023/06/04 12:00:34;;;;;;;4.32;1.50;;;22.80;57.10;;;;;;5051768;28;20046;-50
2023/06/04 12:02:59;;;;;;;3.35;1.70;;;22.70;57.80;;;;;;5052002;28;20021;-56
2023/06/04 12:05:30;;;;;;;2.92;1.45;;;22.80;57.20;;;;;;5051518;28;20032;-57
2023/06/04 12:08:06;;;;;;;3.47;1.63;;;22.80;56.60;;;;;;5051660;28;20127;-56
2023/06/04 12:10:40;;;;;;;2.20;1.30;;;22.80;56.50;;;;;;5051209;28;20032;-57
2023/06/04 12:13:06;;;;;;;3.30;1.65;;;22.90;57.00;;;;;;5051351;28;20056;-55
2023/06/04 12:15:32;;;;;;;3.45;1.60;;;22.90;57.20;;;;;;5051348;28;20366;-52
2023/06/04 12:17:58;;;;;;;2.42;1.30;;;23.00;57.10;;;;;;5051479;28;20400;-54
2023/06/04 12:20:37;;;;;;;3.65;1.10;;;23.00;55.90;;;;;;5051286;28;20324;-55
2023/06/04 12:23:05;;;;;;;2.20;1.40;;;23.00;55.20;;;;;;5051229;28;20108;-56
2023/06/04 12:25:33;;;;;;;3.33;1.40;;;23.10;54.60;;;;;;5051568;28;20025;-54
2023/06/04 12:27:58;;;;;;;2.67;1.35;;;23.10;52.00;;;;;;5051160;28;20390;-53
2023/06/04 12:30:38;;;;;;;1.70;1.27;;;23.00;53.70;;;;;;5051061;28;20029;-53
2023/06/04 12:33:04;;;;;;;2.75;1.50;;;23.20;55.20;;;;;;5051109;28;20036;-54
2023/06/04 12:35:30;;;;;;;3.28;1.70;;;23.10;55.60;;;;;;5050918;28;20033;-55
2023/06/04 12:37:55;;;;;;;2.47;1.20;;;23.20;55.80;;;;;;5051042;28;20079;-56
2023/06/04 12:40:21;;;;;;;2.90;1.40;;;23.20;56.00;;;;;;5051052;28;20057;-56
2023/06/04 12:42:50;;;;;;;3.85;1.30;;;23.10;55.70;;;;;;5051376;28;20041;-56
2023/06/04 12:45:17;;;;;;;;;;;23.10;54.20;;;;;;5051427;28;20466;-56
2023/06/04 12:47:43;;;;;;;2.58;1.40;;;23.10;53.90;;;;;;5051201;28;19916;-57
2023/06/04 12:50:09;;;;;;;2.80;1.50;;;23.10;54.70;;;;;;5050865;28;20059;-56